Weather at Larnaca International Airport

Public forecast

Using degrees Celsius for public forecast. Weather courtesy of forecast.io.

Current aviation weather report (METAR) for Larnaca International Airport

Retrieved 2021/07/24 18:00 UTC (15 minutes ago):

LCLK 241800Z 22011KT 9999 FEW050 29/25 Q1003 NOSIG

Aviation forecast (TAF) for Larnaca International Airport

Retrieved 2021/07/24 18:30 UTC (0 seconds ago):

TAF LCLK 241730Z 2418/2518 22010KT 9999 FEW030 BECMG 2418/2422 30006KT PROB30 TEMPO 2420/2506 5000 BR BKN005 BECMG 2508/2512 21014KT